createdAt,value
2018-04-10T00:00:26.580Z,67.88
2018-04-10T00:02:55.388Z,68.58
2018-04-10T00:05:24.012Z,68.82
2018-04-10T00:07:52.535Z,68.88
2018-04-10T00:10:21.312Z,68.71
2018-04-10T00:12:49.941Z,68.64
2018-04-10T00:15:18.383Z,69.03
2018-04-10T00:17:46.765Z,69.37
2018-04-10T00:20:15.079Z,69.73
2018-04-10T00:22:43.831Z,70.65
2018-04-10T00:25:12.309Z,70.20
2018-04-10T00:27:40.784Z,70.83
2018-04-10T00:30:10.426Z,70.66
2018-04-10T00:32:39.305Z,70.24
2018-04-10T00:35:09.044Z,70.20
2018-04-10T00:37:37.550Z,70.48
2018-04-10T00:40:07.408Z,70.73
2018-04-10T00:42:36.083Z,70.53
2018-04-10T00:45:04.487Z,70.37
2018-04-10T00:47:32.853Z,70.75
2018-04-10T00:50:01.328Z,70.79
2018-04-10T00:52:31.035Z,70.45
2018-04-10T00:54:59.411Z,70.59
2018-04-10T00:57:27.788Z,71.01
2018-04-10T00:59:56.086Z,70.63
2018-04-10T01:22:31.622Z,72.12
2018-04-10T01:25:01.098Z,72.84
2018-04-10T01:27:30.557Z,73.02
2018-04-10T01:30:00.491Z,72.73
2018-04-10T01:32:30.138Z,72.31
2018-04-10T01:34:59.532Z,72.69
2018-04-10T01:37:29.022Z,72.95
2018-04-10T01:40:00.983Z,72.69
2018-04-10T01:42:30.428Z,72.73
2018-04-10T01:44:59.810Z,73.31
2018-04-10T01:47:29.496Z,73.19
2018-04-10T01:49:59.521Z,73.11
2018-04-10T01:52:29.151Z,73.41
2018-04-10T01:54:58.655Z,73.45
2018-04-10T01:57:28.332Z,73.63
2018-04-10T01:59:57.766Z,73.61
2018-04-10T02:02:27.202Z,73.66
2018-04-10T02:05:05.390Z,73.39
2018-04-10T02:07:35.772Z,73.30
2018-04-10T02:10:05.218Z,73.84
2018-04-10T02:12:35.208Z,73.91
2018-04-10T02:15:05.194Z,73.60
2018-04-10T02:17:34.620Z,73.61
2018-04-10T02:20:08.272Z,73.64
2018-04-10T02:22:37.659Z,73.86
2018-04-10T02:25:08.035Z,73.53
2018-04-10T02:27:42.904Z,73.45
2018-04-10T02:30:12.364Z,73.48
2018-04-10T02:32:41.763Z,73.95
2018-04-10T02:35:11.434Z,74.21
2018-04-10T02:37:41.180Z,73.88
2018-04-10T02:40:11.384Z,73.90
2018-04-10T02:42:40.874Z,73.86
2018-04-10T02:45:10.320Z,73.92
2018-04-10T02:47:41.097Z,74.04
2018-04-10T02:50:10.486Z,73.84
2018-04-10T02:52:39.845Z,73.78
2018-04-10T02:55:09.650Z,74.26
2018-04-10T02:57:38.974Z,74.20
2018-04-10T03:00:08.968Z,73.80
2018-04-10T03:02:39.699Z,74.01
2018-04-10T03:05:10.079Z,74.18
2018-04-10T03:07:39.482Z,73.96
2018-04-10T03:10:09.709Z,73.92
2018-04-10T03:12:39.063Z,74.28
2018-04-10T03:15:09.252Z,73.98
2018-04-10T03:17:39.947Z,73.39
2018-04-10T03:20:10.068Z,73.42
2018-04-10T03:22:39.457Z,73.46
2018-04-10T03:25:09.803Z,73.73
2018-04-10T03:27:39.392Z,73.96
2018-04-10T03:30:09.352Z,74.07
2018-04-10T03:32:44.052Z,74.26
2018-04-10T03:35:13.447Z,74.49
2018-04-10T03:37:42.799Z,75.07
2018-04-10T03:40:12.335Z,74.09
2018-04-10T03:42:44.205Z,75.21
2018-04-10T03:45:13.892Z,76.45
2018-04-10T03:47:43.271Z,77.08
2018-04-10T03:50:12.774Z,76.63
2018-04-10T03:52:42.649Z,77.07
2018-04-10T03:55:12.089Z,77.24
2018-04-10T03:57:41.452Z,78.02
2018-04-10T04:00:12.272Z,78.49
2018-04-10T04:02:41.571Z,78.13
2018-04-10T04:05:10.952Z,77.54
2018-04-10T04:07:43.492Z,77.79
2018-04-10T04:10:12.870Z,78.13
2018-04-10T04:12:42.302Z,77.95
2018-04-10T04:15:12.250Z,77.61
2018-04-10T04:17:41.823Z,77.71
2018-04-10T04:20:21.858Z,77.18
2018-04-10T04:22:51.459Z,76.31
2018-04-10T04:25:20.821Z,75.86
2018-04-10T04:27:50.253Z,75.58
2018-04-10T04:30:21.125Z,75.56
2018-04-10T04:32:50.817Z,75.18
2018-04-10T04:35:20.278Z,75.57
2018-04-10T04:37:49.717Z,76.05
2018-04-10T04:40:19.502Z,76.33
2018-04-10T04:42:48.914Z,76.78
2018-04-10T04:45:18.324Z,76.77
2018-04-10T04:47:47.730Z,76.75
2018-04-10T04:50:17.981Z,76.97
2018-04-10T04:52:47.412Z,76.88
2018-04-10T04:55:16.755Z,77.72
2018-04-10T04:57:48.649Z,77.41
2018-04-10T05:00:18.117Z,77.69
2018-04-10T05:02:47.553Z,77.02
2018-04-10T05:05:20.766Z,77.31
2018-04-10T05:07:50.238Z,78.29
2018-04-10T05:10:19.765Z,78.21
2018-04-10T05:12:50.474Z,77.96
2018-04-10T05:15:20.054Z,77.68
2018-04-10T05:17:49.623Z,77.66
2018-04-10T05:20:21.335Z,77.92
2018-04-10T05:22:50.687Z,78.35
2018-04-10T05:25:20.111Z,78.24
2018-04-10T05:27:49.753Z,77.95
2018-04-10T05:30:19.124Z,77.13
2018-04-10T05:32:48.577Z,77.43
2018-04-10T05:35:20.529Z,77.39
2018-04-10T05:37:50.477Z,76.94
2018-04-10T05:40:19.971Z,76.33
2018-04-10T05:42:49.995Z,76.51
2018-04-10T05:45:19.557Z,76.92
2018-04-10T05:47:48.922Z,76.93
2018-04-10T05:50:18.676Z,76.63
2018-04-10T05:52:48.182Z,75.84
2018-04-10T05:55:44.166Z,76.45
2018-04-10T05:58:14.130Z,76.23
2018-04-10T06:00:43.686Z,76.11
2018-04-10T06:03:13.374Z,76.15
2018-04-10T06:05:43.127Z,75.82
2018-04-10T06:08:12.569Z,75.42
2018-04-10T06:10:42.156Z,75.25
2018-04-10T06:13:11.604Z,75.28
2018-04-10T06:15:41.044Z,75.04
2018-04-10T06:18:15.246Z,75.10
2018-04-10T06:20:58.255Z,74.65
2018-04-10T06:23:27.723Z,74.01
2018-04-10T06:25:57.438Z,74.49
2018-04-10T06:28:26.821Z,73.76
2018-04-10T06:30:56.368Z,73.35
2018-04-10T06:33:25.748Z,73.13
2018-04-10T06:35:56.232Z,73.31
2018-04-10T06:38:25.650Z,73.22
2018-04-10T06:41:04.343Z,71.85
2018-04-10T06:43:42.398Z,71.14
2018-04-10T06:46:12.954Z,70.32
2018-04-10T06:48:42.949Z,69.78
2018-04-10T06:51:12.381Z,69.13
2018-04-10T06:53:42.160Z,68.76
2018-04-10T06:56:11.644Z,67.73
2018-04-10T06:58:41.340Z,67.29
2018-04-10T07:01:11.089Z,66.62
2018-04-10T07:03:40.584Z,66.41
2018-04-10T07:06:09.978Z,66.89
2018-04-10T07:08:40.734Z,65.92
2018-04-10T07:11:10.332Z,64.63
2018-04-10T07:13:40.909Z,64.49
2018-04-10T07:16:10.605Z,62.92
2018-04-10T07:18:40.095Z,62.79
2018-04-10T07:21:14.509Z,63.36
2018-04-10T07:23:43.984Z,62.71
2018-04-10T07:26:13.373Z,61.12
2018-04-10T07:28:42.812Z,61.93
2018-04-10T07:31:12.169Z,60.76
2018-04-10T07:33:41.998Z,59.91
2018-04-10T07:36:11.460Z,58.34
2018-04-10T07:38:41.080Z,60.17
2018-04-10T07:41:10.526Z,60.61
2018-04-10T07:43:39.996Z,59.46
2018-04-10T07:46:09.463Z,58.88
2018-04-10T07:48:38.809Z,58.58
2018-04-10T07:51:08.575Z,57.36
2018-04-10T07:53:37.929Z,57.71
2018-04-10T07:56:07.282Z,57.18
2018-04-10T07:58:36.795Z,56.04
2018-04-10T08:01:06.176Z,54.86
2018-04-10T08:03:35.636Z,54.86
2018-04-10T08:06:05.202Z,54.50
2018-04-10T08:08:35.277Z,54.45
2018-04-10T08:11:05.015Z,52.47
2018-04-10T08:13:34.458Z,50.94
2018-04-10T08:16:03.929Z,48.80
2018-04-10T08:18:33.648Z,50.29
2018-04-10T08:21:03.248Z,48.32
2018-04-10T08:23:32.780Z,47.08
2018-04-10T08:26:02.271Z,45.81
2018-04-10T08:28:31.720Z,44.10
2018-04-10T08:31:01.555Z,42.49
2018-04-10T08:33:31.370Z,42.54
2018-04-10T08:36:00.710Z,42.05
2018-04-10T08:38:30.052Z,41.79
2018-04-10T08:40:59.787Z,39.22
2018-04-10T08:43:29.255Z,38.76
2018-04-10T08:45:58.729Z,39.48
2018-04-10T08:48:28.768Z,40.88
2018-04-10T08:50:58.233Z,39.25
2018-04-10T08:53:27.642Z,38.95
2018-04-10T08:55:59.370Z,37.46
2018-04-10T08:58:28.938Z,41.01
2018-04-10T09:00:58.308Z,40.55
2018-04-10T09:03:28.097Z,38.02
2018-04-10T09:05:57.561Z,36.12
2018-04-10T09:08:27.040Z,39.68
2018-04-10T09:10:56.420Z,36.32
2018-04-10T09:13:25.885Z,36.13
2018-04-10T09:15:59.634Z,36.42
2018-04-10T09:18:29.144Z,35.14
2018-04-10T09:20:58.627Z,34.78
2018-04-10T09:23:28.030Z,36.12
2018-04-10T09:25:58.279Z,37.41
2018-04-10T09:28:29.113Z,36.58
2018-04-10T09:30:58.598Z,34.64
2018-04-10T09:33:28.133Z,32.78
2018-04-10T09:36:00.194Z,34.06
2018-04-10T09:38:29.582Z,34.98
2018-04-10T09:40:59.081Z,33.62
2018-04-10T09:43:29.792Z,33.36
2018-04-10T09:45:59.228Z,36.16
2018-04-10T09:48:29.840Z,36.45
2018-04-10T09:50:59.558Z,36.69
2018-04-10T09:53:29.000Z,35.19
2018-04-10T09:55:58.921Z,34.57
2018-04-10T09:58:28.614Z,36.12
2018-04-10T10:00:58.862Z,33.36
2018-04-10T10:03:28.322Z,34.82
2018-04-10T10:05:57.738Z,31.81
2018-04-10T10:08:27.515Z,34.79
2018-04-10T10:10:57.193Z,33.89
2018-04-10T10:13:26.593Z,31.79
2018-04-10T10:15:58.310Z,30.95
2018-04-10T10:18:27.836Z,31.54
2018-04-10T10:20:57.188Z,32.83
2018-04-10T10:23:26.920Z,34.35
2018-04-10T10:25:56.356Z,35.73
2018-04-10T10:28:26.245Z,36.93
2018-04-10T10:30:57.711Z,34.90
2018-04-10T10:33:27.066Z,35.28
2018-04-10T10:35:56.410Z,36.02
2018-04-10T10:38:28.240Z,36.43
2018-04-10T10:40:59.956Z,35.38
2018-04-10T10:43:29.317Z,36.07
2018-04-10T10:45:58.999Z,35.44
2018-04-10T10:48:28.376Z,34.49
2018-04-10T10:50:58.663Z,34.44
2018-04-10T10:53:29.439Z,34.86
2018-04-10T10:55:59.032Z,34.61
2018-04-10T10:58:28.436Z,32.88
2018-04-10T11:01:00.364Z,33.88
2018-04-10T11:03:29.863Z,36.49
2018-04-10T11:05:59.501Z,37.87
2018-04-10T11:08:29.198Z,37.77
2018-04-10T11:10:59.778Z,37.59
2018-04-10T11:13:29.309Z,37.42
2018-04-10T11:15:59.042Z,37.12
2018-04-10T11:18:28.522Z,37.21
2018-04-10T11:20:57.996Z,36.95
2018-04-10T11:23:27.686Z,36.07
2018-04-10T11:25:57.237Z,36.32
2018-04-10T11:28:26.660Z,36.27
2018-04-10T11:30:58.486Z,36.57
2018-04-10T11:33:27.820Z,37.05
2018-04-10T11:35:57.175Z,36.75
2018-04-10T11:38:26.852Z,36.72
2018-04-10T11:40:56.233Z,36.29
2018-04-10T11:43:25.788Z,36.82
2018-04-10T11:45:57.838Z,37.34
2018-04-10T11:48:27.584Z,36.92
2018-04-10T11:50:57.080Z,36.84
2018-04-10T11:53:27.787Z,36.06
2018-04-10T11:55:57.254Z,36.48
2018-04-10T11:58:26.675Z,36.38
2018-04-10T12:00:57.520Z,36.46
2018-04-10T12:03:26.981Z,37.14
2018-04-10T12:05:56.414Z,37.84
2018-04-10T12:08:27.348Z,37.96
2018-04-10T12:10:56.811Z,36.55
2018-04-10T12:13:26.485Z,36.11
2018-04-10T12:15:56.215Z,36.84
2018-04-10T12:18:25.588Z,36.84
2018-04-10T12:20:54.986Z,36.84
2018-04-10T12:23:24.792Z,36.63
2018-04-10T12:25:54.298Z,36.22
2018-04-10T12:28:23.712Z,35.40
2018-04-10T12:30:53.444Z,35.54
2018-04-10T12:33:22.954Z,36.35
2018-04-10T12:35:52.419Z,35.35
2018-04-10T12:38:22.193Z,35.46
2018-04-10T12:40:51.606Z,35.12
2018-04-10T12:43:21.084Z,34.54
2018-04-10T12:45:50.762Z,34.20
2018-04-10T12:48:20.310Z,34.53
2018-04-10T12:50:49.720Z,33.99
2018-04-10T12:53:20.467Z,35.31
2018-04-10T12:55:49.794Z,34.97
2018-04-10T12:58:19.199Z,35.01
2018-04-10T13:00:49.062Z,34.82
2018-04-10T13:03:18.470Z,36.48
2018-04-10T13:05:47.909Z,36.59
2018-04-10T13:08:18.740Z,35.78
2018-04-10T13:10:48.205Z,34.73
2018-04-10T13:13:17.768Z,34.21
2018-04-10T13:15:47.567Z,33.56
2018-04-10T13:18:16.964Z,33.82
2018-04-10T13:20:46.418Z,32.86
2018-04-10T13:23:16.341Z,34.32
2018-04-10T13:25:45.773Z,34.34
2018-04-10T13:28:15.178Z,34.89
2018-04-10T13:30:44.922Z,34.80
2018-04-10T13:33:14.795Z,32.77
2018-04-10T13:35:44.190Z,32.35
2018-04-10T13:38:16.104Z,30.46
2018-04-10T13:40:45.528Z,31.04
2018-04-10T13:43:15.069Z,31.58
2018-04-10T13:45:45.010Z,31.05
2018-04-10T13:48:14.398Z,30.97
2018-04-10T13:50:43.844Z,30.93
2018-04-10T13:53:13.589Z,30.75
2018-04-10T13:55:43.026Z,31.34
2018-04-10T13:58:12.434Z,32.85
2018-04-10T14:00:42.326Z,33.02
2018-04-10T14:03:11.770Z,31.58
2018-04-10T14:05:41.307Z,31.32
2018-04-10T14:08:13.174Z,32.87
2018-04-10T14:10:42.684Z,32.08
2018-04-10T14:13:12.233Z,30.33
2018-04-10T14:15:42.744Z,29.83
2018-04-10T14:18:14.000Z,31.01
2018-04-10T14:20:43.518Z,30.85
2018-04-10T14:23:15.153Z,32.77
2018-04-10T14:25:44.973Z,33.00
2018-04-10T14:28:15.171Z,32.32
2018-04-10T14:30:46.175Z,33.51
2018-04-10T14:33:16.589Z,32.32
2018-04-10T14:35:47.733Z,33.76
2018-04-10T14:38:21.797Z,34.14
2018-04-10T14:40:51.610Z,35.38
2018-04-10T14:43:21.247Z,35.90
2018-04-10T14:45:51.697Z,36.49
2018-04-10T14:48:21.072Z,38.56
2018-04-10T14:50:50.553Z,38.43
2018-04-10T14:53:20.822Z,39.28
2018-04-10T14:55:51.605Z,38.75
2018-04-10T14:58:21.986Z,38.99
2018-04-10T15:00:51.682Z,39.18
2018-04-10T15:03:21.492Z,39.44
2018-04-10T15:05:51.325Z,39.28
2018-04-10T15:08:21.145Z,39.82
2018-04-10T15:10:51.187Z,42.22
2018-04-10T15:13:21.313Z,43.00
2018-04-10T15:15:51.139Z,43.43
2018-04-10T15:18:20.705Z,43.76
2018-04-10T15:20:50.266Z,45.24
2018-04-10T15:23:20.497Z,45.51
2018-04-10T15:25:49.909Z,45.78
2018-04-10T15:28:19.460Z,46.88
2018-04-10T15:30:49.286Z,46.48
2018-04-10T15:33:18.749Z,47.19
2018-04-10T15:35:50.144Z,48.13
2018-04-10T15:38:19.967Z,48.45
2018-04-10T15:40:49.559Z,48.43
2018-04-10T15:43:19.012Z,49.02
2018-04-10T15:45:49.822Z,49.96
2018-04-10T15:48:19.513Z,52.69
2018-04-10T15:50:49.254Z,54.99
2018-04-10T15:53:18.754Z,55.34
2018-04-10T15:55:48.405Z,56.48
2018-04-10T15:58:17.853Z,58.19
2018-04-10T16:00:47.571Z,58.98
2018-04-10T16:03:17.157Z,58.60
2018-04-10T16:05:46.899Z,60.10
2018-04-10T16:08:18.361Z,60.57
2018-04-10T16:10:47.918Z,62.26
2018-04-10T16:13:17.374Z,64.47
2018-04-10T16:15:46.778Z,62.86
2018-04-10T16:18:16.408Z,63.30
2018-04-10T16:20:47.364Z,63.32
2018-04-10T16:23:16.788Z,66.57
2018-04-10T16:25:46.284Z,66.88
2018-04-10T16:28:17.993Z,68.15
2018-04-10T16:30:47.443Z,67.99
2018-04-10T16:33:16.921Z,69.14
2018-04-10T16:35:48.863Z,70.08
2018-04-10T16:38:18.200Z,70.54
2018-04-10T16:40:47.551Z,74.34
2018-04-10T16:43:17.211Z,77.21
2018-04-10T16:45:47.662Z,77.89
2018-04-10T16:48:17.091Z,79.66
2018-04-10T16:50:50.244Z,78.49
2018-04-10T16:53:19.627Z,79.87
2018-04-10T16:55:49.062Z,80.85
2018-04-10T16:58:19.025Z,82.19
2018-04-10T17:00:48.444Z,81.11
2018-04-10T17:03:18.533Z,80.91
2018-04-10T17:05:48.794Z,82.20
2018-04-10T17:08:18.262Z,82.73
2018-04-10T17:10:47.867Z,84.76
2018-04-10T17:13:17.822Z,85.28
2018-04-10T17:15:47.397Z,85.96
2018-04-10T17:18:19.411Z,84.57
2018-04-10T17:20:49.264Z,83.14
2018-04-10T17:23:18.979Z,82.01
2018-04-10T17:25:48.529Z,83.85
2018-04-10T17:28:18.373Z,83.67
2018-04-10T17:30:47.846Z,84.03
2018-04-10T17:33:17.304Z,84.01
2018-04-10T17:35:46.764Z,83.21
2018-04-10T17:38:16.237Z,82.90
2018-04-10T17:40:45.740Z,84.93
2018-04-10T17:43:15.732Z,84.11
2018-04-10T17:45:45.487Z,83.94
2018-04-10T17:48:14.862Z,85.10
2018-04-10T17:50:44.577Z,85.70
2018-04-10T17:53:15.438Z,86.94
2018-04-10T17:55:46.584Z,87.37
2018-04-10T17:58:16.555Z,87.40
2018-04-10T18:00:46.440Z,87.56
2018-04-10T18:03:16.020Z,87.92
2018-04-10T18:05:46.005Z,88.18
2018-04-10T18:08:15.616Z,88.31
2018-04-10T18:10:45.057Z,88.61
2018-04-10T18:13:16.185Z,88.74
2018-04-10T18:15:46.622Z,88.45
2018-04-10T18:18:16.351Z,88.48
2018-04-10T18:20:46.148Z,88.70
2018-04-10T18:23:15.714Z,88.66
2018-04-10T18:25:46.805Z,88.98
2018-04-10T18:28:17.656Z,89.16
2018-04-10T18:30:48.135Z,89.07
2018-04-10T18:33:17.699Z,89.22
2018-04-10T18:35:48.405Z,89.33
2018-04-10T18:38:18.040Z,89.25
2018-04-10T18:40:48.580Z,89.37
2018-04-10T18:43:18.656Z,89.54
2018-04-10T18:45:48.134Z,89.60
2018-04-10T18:48:17.821Z,89.48
2018-04-10T18:50:47.589Z,89.43
2018-04-10T18:53:17.404Z,89.46
2018-04-10T18:55:46.944Z,89.15
2018-04-10T18:58:17.157Z,89.22
2018-04-10T19:00:46.958Z,89.35
2018-04-10T19:03:16.351Z,89.47
2018-04-10T19:05:48.288Z,89.85
2018-04-10T19:08:22.382Z,90.10
2018-04-10T19:10:52.438Z,90.24
2018-04-10T19:13:23.342Z,90.28
2018-04-10T19:15:52.767Z,90.47
2018-04-10T19:18:22.252Z,90.55
2018-04-10T19:20:54.336Z,90.61
2018-04-10T19:23:24.085Z,90.64
2018-04-10T19:25:53.592Z,90.80
2018-04-10T19:28:24.575Z,90.70
2018-04-10T19:30:54.360Z,90.76
2018-04-10T19:33:24.014Z,90.78
2018-04-10T19:35:54.872Z,90.92
2018-04-10T19:38:24.403Z,90.95
2018-04-10T19:40:56.022Z,91.07
2018-04-10T19:43:26.038Z,91.06
2018-04-10T19:45:56.156Z,91.04
2018-04-10T19:48:25.859Z,90.82
2018-04-10T19:51:09.237Z,90.72
2018-04-10T19:53:39.372Z,90.65
2018-04-10T19:56:14.812Z,90.62
2018-04-10T19:58:45.620Z,90.38
2018-04-10T20:01:16.897Z,90.34
2018-04-10T20:03:47.690Z,90.55
2018-04-10T20:06:19.177Z,90.72
2018-04-10T20:08:49.975Z,90.71
2018-04-10T20:11:20.236Z,90.82
2018-04-10T20:13:50.867Z,91.08
2018-04-10T20:16:24.787Z,91.15
2018-04-10T20:18:56.991Z,91.35
2018-04-10T20:21:27.156Z,91.37
2018-04-10T20:24:01.052Z,91.44
2018-04-10T20:26:31.921Z,91.36
2018-04-10T20:29:02.180Z,90.41
2018-04-10T20:31:37.623Z,87.82
2018-04-10T20:34:09.329Z,84.83
2018-04-10T20:36:40.238Z,85.06
2018-04-10T20:39:16.145Z,83.90
2018-04-10T20:41:48.759Z,83.97
2018-04-10T20:44:22.262Z,84.73
2018-04-10T20:46:53.721Z,84.97
2018-04-10T20:49:28.885Z,82.86
2018-04-10T20:52:01.085Z,82.33
2018-04-10T20:54:33.289Z,82.49
2018-04-10T20:57:05.287Z,83.18
2018-04-10T20:59:34.870Z,83.41
2018-04-10T21:02:11.226Z,83.55
2018-04-10T21:04:43.050Z,83.54
2018-04-10T21:07:14.274Z,84.20
2018-04-10T21:09:44.204Z,84.13
2018-04-10T21:12:14.036Z,84.23
2018-04-10T21:14:51.377Z,84.21
2018-04-10T21:17:22.147Z,83.34
2018-04-10T21:19:51.826Z,83.52
2018-04-10T21:22:21.537Z,83.70
2018-04-10T21:24:55.956Z,83.60
2018-04-10T21:27:26.479Z,83.44
2018-04-10T21:29:56.449Z,83.66
2018-04-10T21:32:26.124Z,83.96
2018-04-10T21:34:55.784Z,84.31
2018-04-10T21:37:26.202Z,84.35
2018-04-10T21:39:55.802Z,84.37
2018-04-10T21:42:25.833Z,84.02
2018-04-10T21:44:56.269Z,83.29
2018-04-10T21:47:27.060Z,83.37
2018-04-10T21:50:06.160Z,83.73
2018-04-10T21:52:37.479Z,83.75
2018-04-10T21:55:09.399Z,83.62
2018-04-10T21:57:39.160Z,83.75
2018-04-10T22:00:10.255Z,83.77
2018-04-10T22:02:40.885Z,83.89
2018-04-10T22:05:11.497Z,84.02
2018-04-10T22:07:42.671Z,83.87
2018-04-10T22:10:18.597Z,84.15
2018-04-10T22:12:48.785Z,84.32
2018-04-10T22:15:18.889Z,84.73
2018-04-10T22:17:48.735Z,84.44
2018-04-10T22:20:18.666Z,84.43
2018-04-10T22:22:48.300Z,84.61
2018-04-10T22:25:19.352Z,84.23
2018-04-10T22:27:49.321Z,84.22
2018-04-10T22:30:19.334Z,84.03
2018-04-10T22:32:48.741Z,83.56
2018-04-10T22:35:18.542Z,83.88
2018-04-10T22:37:48.547Z,83.75
2018-04-10T22:40:18.290Z,84.03
2018-04-10T22:42:49.229Z,83.96
2018-04-10T22:45:19.240Z,84.25
2018-04-10T22:47:48.943Z,83.71
2018-04-10T22:50:18.620Z,83.53
2018-04-10T22:55:13.549Z,84.01
2018-04-10T22:57:42.921Z,84.30
2018-04-10T23:00:12.136Z,84.23
2018-04-10T23:02:44.005Z,83.56
2018-04-10T23:05:14.032Z,83.67
2018-04-10T23:07:43.341Z,83.93
2018-04-10T23:10:11.792Z,84.40
2018-04-10T23:12:40.997Z,84.58
2018-04-10T23:15:10.353Z,84.56
2018-04-10T23:17:39.173Z,84.50
2018-04-10T23:20:09.094Z,84.77
2018-04-10T23:22:38.702Z,84.39
2018-04-10T23:25:08.370Z,84.53
2018-04-10T23:27:37.225Z,83.94
2018-04-10T23:30:05.816Z,84.19
2018-04-10T23:32:35.072Z,84.69
2018-04-10T23:35:03.698Z,84.57
2018-04-10T23:37:32.694Z,84.50
2018-04-10T23:40:01.309Z,83.83
2018-04-10T23:42:29.793Z,83.40
2018-04-10T23:44:58.337Z,83.45
2018-04-10T23:47:26.944Z,83.93
2018-04-10T23:49:55.489Z,83.86
2018-04-10T23:52:30.629Z,83.59
2018-04-10T23:54:59.318Z,84.40
2018-04-10T23:57:27.749Z,84.44
2018-04-10T23:59:56.857Z,84.04
